Time;durP1;ratioP1;P1;durP2;ratioP2;P2;SDS_P1;SDS_P2;PMS_P1;PMS_P2;Temp;Humidity;BMP_temperature;BMP_pressure;BME280_temperature;BME280_humidity;BME280_pressure;Samples;Min_cycle;Max_cycle;Signal;HPM_P1;HPM_P2
2021/12/10 00:01:08;;;;;;;19.55;10.75;;;;;;;;;;2078599;28;20519;-71
2021/12/10 00:02:34;;;;;;;16.77;10.43;;;;;;;;;;2080667;28;20037;-71
2021/12/10 00:03:54;;;;;;;18.67;11.15;;;;;;;;;;2080126;28;20056;-71
2021/12/10 00:05:18;;;;;;;20.70;12.30;;;;;;;;;;2079406;28;20034;-71
2021/12/10 00:06:39;;;;;;;19.70;11.85;;;;;;;;;;2079725;28;20034;-72
2021/12/10 00:07:59;;;;;;;19.15;11.73;;;;;;;;;;2081396;28;20029;-72
2021/12/10 00:09:23;;;;;;;18.05;10.93;;;;;;;;;;2080460;28;20533;-71
2021/12/10 00:10:45;;;;;;;19.90;12.20;;;;;;;;;;2079497;28;20037;-71
2021/12/10 00:12:09;;;;;;;21.98;11.48;;;;;;;;;;2080827;28;20033;-71
2021/12/10 00:13:28;;;;;;;16.55;11.38;;;;;;;;;;2080478;28;20029;-71
2021/12/10 00:14:47;;;;;;;23.40;12.75;;;;;;;;;;2080353;28;20058;-72
2021/12/10 00:16:06;;;;;;;17.55;12.32;;;;;;;;;;2082570;28;20033;-71
2021/12/10 00:17:25;;;;;;;25.23;13.05;;;;;;;;;;2080143;28;20029;-71
2021/12/10 00:18:51;;;;;;;19.67;13.15;;;;;;;;;;2081274;28;20034;-72
2021/12/10 00:20:11;;;;;;;27.33;12.63;;;;;;;;;;2080703;28;20025;-70
2021/12/10 00:21:30;;;;;;;19.27;12.27;;;;;;;;;;2082485;28;20061;-71
2021/12/10 00:22:54;;;;;;;22.95;12.50;;;;;;;;;;2079624;28;20029;-70
2021/12/10 00:24:15;;;;;;;24.08;12.63;;;;;;;;;;2081675;28;20025;-71
2021/12/10 00:25:39;;;;;;;24.50;12.90;;;;;;;;;;2080028;28;20446;-71
2021/12/10 00:26:59;;;;;;;19.38;11.98;;;;;;;;;;2080466;28;20022;-70
2021/12/10 00:28:27;;;;;;;22.45;12.07;;;;;;;;;;2081353;28;20025;-71
2021/12/10 00:29:49;;;;;;;18.63;12.18;;;;;;;;;;2081225;28;20033;-71
2021/12/10 00:31:32;;;;;;;20.15;13.15;;;;;;;;;;2080495;28;20508;-71
2021/12/10 00:33:03;;;;;;;19.30;12.88;;;;;;;;;;2088548;28;20036;-71
2021/12/10 00:34:26;;;;;;;23.75;13.40;;;;;;;;;;2083038;28;20116;-70
2021/12/10 00:35:44;;;;;;;22.00;13.80;;;;;;;;;;2080050;28;20033;-71
2021/12/10 00:37:05;;;;;;;21.83;13.38;;;;;;;;;;2079640;28;20069;-70
2021/12/10 00:38:25;;;;;;;22.38;13.13;;;;;;;;;;2079652;28;20038;-70
2021/12/10 00:39:51;;;;;;;22.67;12.18;;;;;;;;;;2074757;28;20025;-71
2021/12/10 00:41:10;;;;;;;24.45;12.95;;;;;;;;;;2077268;28;20038;-70
2021/12/10 00:42:32;;;;;;;22.60;13.43;;;;;;;;;;2079427;28;20053;-71
2021/12/10 00:43:51;;;;;;;23.40;13.93;;;;;;;;;;2080870;28;20057;-71
2021/12/10 00:45:12;;;;;;;21.80;14.00;;;;;;;;;;2079355;28;20263;-71
2021/12/10 00:46:31;;;;;;;21.35;12.95;;;;;;;;;;2080150;28;20408;-71
2021/12/10 00:47:50;;;;;;;24.95;14.02;;;;;;;;;;2079645;28;20410;-71
2021/12/10 00:49:09;;;;;;;23.25;14.68;;;;;;;;;;2079366;28;20112;-71
2021/12/10 00:50:30;;;;;;;27.77;15.13;;;;;;;;;;2080001;28;20104;-71
2021/12/10 00:51:50;;;;;;;22.50;14.13;;;;;;;;;;2079349;28;20096;-70
2021/12/10 00:53:09;;;;;;;25.30;14.50;;;;;;;;;;2079379;28;20338;-71
2021/12/10 00:54:28;;;;;;;26.63;15.30;;;;;;;;;;2079741;28;20464;-70
2021/12/10 00:55:47;;;;;;;29.25;15.73;;;;;;;;;;2080747;28;20484;-71
2021/12/10 00:57:06;;;;;;;21.13;14.00;;;;;;;;;;2080736;28;20030;-71
2021/12/10 00:58:27;;;;;;;23.02;14.57;;;;;;;;;;2080463;28;20030;-71
2021/12/10 00:59:47;;;;;;;22.80;13.90;;;;;;;;;;2082807;28;20030;-71
2021/12/10 01:01:11;;;;;;;22.15;13.98;;;;;;;;;;2087361;28;20024;-71
2021/12/10 01:02:29;;;;;;;22.63;14.32;;;;;;;;;;2076855;28;20064;-71
2021/12/10 01:03:51;;;;;;;25.42;15.20;;;;;;;;;;2075004;28;20064;-71
2021/12/10 01:05:11;;;;;;;26.75;13.85;;;;;;;;;;2079683;28;20033;-71
2021/12/10 01:06:30;;;;;;;26.27;13.73;;;;;;;;;;2081195;28;20025;-71
2021/12/10 01:07:49;;;;;;;20.75;13.73;;;;;;;;;;2080330;28;20034;-71
2021/12/10 01:09:11;;;;;;;23.85;13.35;;;;;;;;;;2081588;28;20487;-71
2021/12/10 01:10:42;;;;;;;23.02;13.85;;;;;;;;;;2080148;28;20045;-70
2021/12/10 01:12:08;;;;;;;20.88;13.55;;;;;;;;;;2081322;28;20014;-70
2021/12/10 01:13:31;;;;;;;23.58;12.88;;;;;;;;;;2077248;28;20034;-71
2021/12/10 01:24:49;;;;;;;18.63;11.77;;;;;;;;;;2081352;28;20029;-71
2021/12/10 01:27:41;;;;;;;19.80;12.07;;;;;;;;;;2080345;28;20108;-71
2021/12/10 01:29:00;;;;;;;16.57;11.43;;;;;;;;;;2080756;28;20495;-70
2021/12/10 01:30:22;;;;;;;18.52;11.63;;;;;;;;;;2079721;28;20741;-71
2021/12/10 01:31:41;;;;;;;22.88;12.95;;;;;;;;;;2081315;28;20033;-71
2021/12/10 01:33:08;;;;;;;18.55;11.82;;;;;;;;;;2079998;28;20065;-70
2021/12/10 01:34:27;;;;;;;16.55;10.85;;;;;;;;;;2079274;28;20423;-70
2021/12/10 01:35:48;;;;;;;18.75;11.65;;;;;;;;;;2080913;28;20029;-71
2021/12/10 01:37:08;;;;;;;15.70;11.18;;;;;;;;;;2080473;28;20026;-71
2021/12/10 01:38:27;;;;;;;15.98;10.98;;;;;;;;;;2081269;28;20041;-70
2021/12/10 01:39:46;;;;;;;15.68;10.55;;;;;;;;;;2078342;28;20277;-71
2021/12/10 01:41:09;;;;;;;18.30;11.07;;;;;;;;;;2080007;28;20026;-70
2021/12/10 01:42:38;;;;;;;23.25;11.75;;;;;;;;;;2081158;28;20037;-70
2021/12/10 01:44:02;;;;;;;14.68;10.10;;;;;;;;;;2080147;28;20573;-70
2021/12/10 01:45:23;;;;;;;18.55;11.10;;;;;;;;;;2080500;28;20021;-72
2021/12/10 01:46:44;;;;;;;17.10;10.98;;;;;;;;;;2079772;28;20274;-70
2021/12/10 01:48:08;;;;;;;16.30;10.85;;;;;;;;;;2079484;28;20495;-71
2021/12/10 01:49:28;;;;;;;18.48;10.68;;;;;;;;;;2079913;28;20049;-71
2021/12/10 01:50:47;;;;;;;19.83;10.30;;;;;;;;;;2080457;28;20246;-70
2021/12/10 01:52:07;;;;;;;15.85;10.52;;;;;;;;;;2079153;28;20026;-70
2021/12/10 01:53:27;;;;;;;15.23;9.95;;;;;;;;;;2078877;28;20041;-71
2021/12/10 01:54:52;;;;;;;12.57;8.85;;;;;;;;;;2079595;28;20030;-71
2021/12/10 01:56:14;;;;;;;15.38;9.60;;;;;;;;;;2080607;28;20104;-71
2021/12/10 01:57:34;;;;;;;17.67;9.80;;;;;;;;;;2078946;28;20426;-71
2021/12/10 01:58:54;;;;;;;12.45;9.02;;;;;;;;;;2078011;28;20038;-71
2021/12/10 02:00:13;;;;;;;11.32;8.48;;;;;;;;;;2079701;28;20025;-71
2021/12/10 02:01:35;;;;;;;11.85;8.43;;;;;;;;;;2080474;28;20045;-71
2021/12/10 02:02:54;;;;;;;10.80;8.10;;;;;;;;;;2079128;28;20064;-71
2021/12/10 02:04:14;;;;;;;9.55;7.25;;;;;;;;;;2079426;28;20033;-71
2021/12/10 02:05:33;;;;;;;10.10;7.85;;;;;;;;;;2080658;28;20483;-71
2021/12/10 02:06:52;;;;;;;12.00;8.43;;;;;;;;;;2079712;28;20030;-70
2021/12/10 02:08:11;;;;;;;10.90;7.55;;;;;;;;;;2080559;28;20124;-71
2021/12/10 02:09:30;;;;;;;9.55;7.78;;;;;;;;;;2077300;28;20038;-71
2021/12/10 02:10:49;;;;;;;10.82;8.10;;;;;;;;;;2079566;28;20400;-71
2021/12/10 02:12:08;;;;;;;11.40;7.05;;;;;;;;;;2079718;28;20037;-71
2021/12/10 02:13:28;;;;;;;12.20;7.80;;;;;;;;;;2080493;28;20025;-72
2021/12/10 02:14:56;;;;;;;14.35;7.80;;;;;;;;;;2079910;28;20512;-71
2021/12/10 02:16:15;;;;;;;10.18;7.70;;;;;;;;;;2079411;28;20033;-71
2021/12/10 02:17:37;;;;;;;12.05;7.97;;;;;;;;;;2085907;28;20029;-72
2021/12/10 02:18:56;;;;;;;13.45;7.47;;;;;;;;;;2082755;28;20026;-72
2021/12/10 02:20:20;;;;;;;12.55;7.28;;;;;;;;;;2080345;28;20064;-72
2021/12/10 02:21:40;;;;;;;10.57;6.70;;;;;;;;;;2079247;28;20030;-72
2021/12/10 02:23:00;;;;;;;10.70;7.10;;;;;;;;;;2080213;28;20029;-71
2021/12/10 02:24:19;;;;;;;9.40;6.85;;;;;;;;;;2079974;28;20065;-71
2021/12/10 02:25:38;;;;;;;8.98;7.15;;;;;;;;;;2080349;28;20037;-71
2021/12/10 02:26:59;;;;;;;13.82;8.15;;;;;;;;;;2080598;28;20476;-71
2021/12/10 02:28:18;;;;;;;7.45;6.63;;;;;;;;;;2079631;28;20108;-71
2021/12/10 02:29:38;;;;;;;9.15;6.70;;;;;;;;;;2078938;28;20061;-72
2021/12/10 02:30:59;;;;;;;11.50;6.10;;;;;;;;;;2080603;28;20025;-72
2021/12/10 02:32:18;;;;;;;8.13;6.40;;;;;;;;;;2080998;28;20021;-71
2021/12/10 02:33:39;;;;;;;9.65;6.05;;;;;;;;;;2080289;28;20057;-72
2021/12/10 02:34:58;;;;;;;8.75;5.95;;;;;;;;;;2079942;28;20068;-71
2021/12/10 02:36:17;;;;;;;9.80;6.30;;;;;;;;;;2081071;28;20029;-71
2021/12/10 02:37:37;;;;;;;8.82;6.28;;;;;;;;;;2081354;28;20097;-71
2021/12/10 02:38:56;;;;;;;9.00;5.85;;;;;;;;;;2079123;28;20021;-71
2021/12/10 02:40:18;;;;;;;6.47;5.18;;;;;;;;;;2081165;28;20041;-71
2021/12/10 02:41:38;;;;;;;6.70;5.57;;;;;;;;;;2079460;28;20049;-71
2021/12/10 02:42:58;;;;;;;7.40;5.32;;;;;;;;;;2080069;28;20029;-71
2021/12/10 02:44:21;;;;;;;7.03;5.18;;;;;;;;;;2076780;28;20014;-73
2021/12/10 02:45:40;;;;;;;;;;;;;;;;;;2079819;28;20013;-71
2021/12/10 02:46:59;;;;;;;5.97;4.95;;;;;;;;;;2079614;28;19905;-72
2021/12/10 02:48:18;;;;;;;7.60;5.47;;;;;;;;;;2077347;28;20029;-72
2021/12/10 02:49:37;;;;;;;6.20;4.82;;;;;;;;;;2080685;28;20037;-72
2021/12/10 02:50:57;;;;;;;6.95;4.60;;;;;;;;;;2082096;28;20502;-72
2021/12/10 02:52:17;;;;;;;5.60;4.97;;;;;;;;;;2081050;28;20033;-70
2021/12/10 02:53:41;;;;;;;6.30;4.93;;;;;;;;;;2081053;28;20029;-70
2021/12/10 02:55:00;;;;;;;4.75;4.28;;;;;;;;;;2082204;28;20034;-70
2021/12/10 02:56:20;;;;;;;4.90;4.50;;;;;;;;;;2081528;28;20034;-71
2021/12/10 02:57:39;;;;;;;5.35;4.47;;;;;;;;;;2079818;28;20033;-71
2021/12/10 02:58:59;;;;;;;4.47;4.07;;;;;;;;;;2080573;28;20419;-70
2021/12/10 03:00:19;;;;;;;4.40;3.95;;;;;;;;;;2081122;28;20037;-71
2021/12/10 03:01:43;;;;;;;4.63;4.05;;;;;;;;;;2080503;28;20041;-71
2021/12/10 03:03:02;;;;;;;5.82;3.60;;;;;;;;;;2080290;28;20117;-71
2021/12/10 03:04:21;;;;;;;5.35;4.28;;;;;;;;;;2080228;28;20336;-70
2021/12/10 03:05:40;;;;;;;4.57;4.05;;;;;;;;;;2079664;28;20026;-71
2021/12/10 03:07:00;;;;;;;6.70;4.47;;;;;;;;;;2080310;28;20563;-70
2021/12/10 03:08:19;;;;;;;4.80;4.32;;;;;;;;;;2081550;28;20045;-70
2021/12/10 03:09:38;;;;;;;5.88;4.28;;;;;;;;;;2078529;28;20037;-71
2021/12/10 03:10:57;;;;;;;4.88;4.30;;;;;;;;;;2081046;28;20041;-70
2021/12/10 03:12:18;;;;;;;4.50;4.10;;;;;;;;;;2080523;28;20030;-70
2021/12/10 03:13:37;;;;;;;4.85;4.30;;;;;;;;;;2079751;28;20476;-70
2021/12/10 03:14:57;;;;;;;4.45;4.00;;;;;;;;;;2078430;28;20045;-70
2021/12/10 03:16:16;;;;;;;4.68;4.10;;;;;;;;;;2075567;28;20029;-70
2021/12/10 03:17:35;;;;;;;7.07;4.57;;;;;;;;;;2080404;28;20461;-70
2021/12/10 03:18:54;;;;;;;4.50;4.05;;;;;;;;;;2080923;28;20041;-70
2021/12/10 03:20:15;;;;;;;4.85;4.32;;;;;;;;;;2079801;28;20045;-71
2021/12/10 03:21:37;;;;;;;5.93;4.90;;;;;;;;;;2080610;28;20472;-70
2021/12/10 03:22:58;;;;;;;5.43;5.00;;;;;;;;;;2076480;28;20481;-70
2021/12/10 03:24:20;;;;;;;4.70;4.30;;;;;;;;;;2078334;28;20053;-70
2021/12/10 03:25:39;;;;;;;5.47;4.13;;;;;;;;;;2078464;28;20057;-71
2021/12/10 03:27:01;;;;;;;7.00;4.85;;;;;;;;;;2075718;28;20026;-70
2021/12/10 03:28:20;;;;;;;6.97;5.32;;;;;;;;;;2079157;28;20021;-70
2021/12/10 03:29:40;;;;;;;5.72;4.57;;;;;;;;;;2081474;28;20030;-71
2021/12/10 03:30:59;;;;;;;5.43;4.93;;;;;;;;;;2080615;28;20446;-71
2021/12/10 03:32:25;;;;;;;5.10;4.60;;;;;;;;;;2082351;28;20041;-70
2021/12/10 03:33:44;;;;;;;7.63;5.38;;;;;;;;;;2079507;28;20120;-71
2021/12/10 03:35:09;;;;;;;5.70;5.05;;;;;;;;;;2079075;28;20037;-71
2021/12/10 03:36:28;;;;;;;7.97;4.65;;;;;;;;;;2081012;28;20025;-70
2021/12/10 03:37:47;;;;;;;8.20;5.13;;;;;;;;;;2080991;28;20047;-70
2021/12/10 03:39:06;;;;;;;8.70;4.97;;;;;;;;;;2081192;28;20018;-71
2021/12/10 03:40:25;;;;;;;9.10;4.97;;;;;;;;;;2081261;28;20029;-71
2021/12/10 03:41:45;;;;;;;8.77;5.40;;;;;;;;;;2081395;28;20529;-71
2021/12/10 03:43:04;;;;;;;11.23;5.45;;;;;;;;;;2080671;28;20112;-70
2021/12/10 03:44:24;;;;;;;8.60;5.47;;;;;;;;;;2081508;28;20033;-70
2021/12/10 03:45:45;;;;;;;8.45;5.90;;;;;;;;;;2078582;28;20034;-70
2021/12/10 03:47:05;;;;;;;7.63;5.10;;;;;;;;;;2080388;28;20030;-70
2021/12/10 03:48:26;;;;;;;9.57;5.63;;;;;;;;;;2080170;28;20069;-70
2021/12/10 03:49:45;;;;;;;10.27;6.00;;;;;;;;;;2081117;28;20024;-70
2021/12/10 03:51:05;;;;;;;8.95;5.45;;;;;;;;;;2081726;28;20104;-70
2021/12/10 03:52:24;;;;;;;9.13;5.72;;;;;;;;;;2081147;28;20030;-70
2021/12/10 03:53:44;;;;;;;8.23;6.53;;;;;;;;;;2081455;28;20124;-70
2021/12/10 03:55:03;;;;;;;8.88;5.50;;;;;;;;;;2086250;28;20025;-70
2021/12/10 03:56:24;;;;;;;6.45;5.28;;;;;;;;;;2079905;28;20033;-72
2021/12/10 03:57:42;;;;;;;6.05;5.32;;;;;;;;;;2081163;28;20033;-70
2021/12/10 03:59:03;;;;;;;13.82;5.85;;;;;;;;;;2080975;28;20045;-71
2021/12/10 04:00:25;;;;;;;6.97;5.47;;;;;;;;;;2081195;28;20491;-70
2021/12/10 04:01:46;;;;;;;7.55;5.53;;;;;;;;;;2080890;28;20059;-71
2021/12/10 04:03:05;;;;;;;9.88;5.32;;;;;;;;;;2081424;28;20435;-70
2021/12/10 04:04:26;;;;;;;6.78;5.10;;;;;;;;;;2085700;28;20025;-71
2021/12/10 04:05:45;;;;;;;11.75;6.45;;;;;;;;;;2087906;28;20037;-70
2021/12/10 04:07:06;;;;;;;13.10;5.57;;;;;;;;;;2081568;28;20017;-70
2021/12/10 04:08:26;;;;;;;9.13;5.88;;;;;;;;;;2080274;28;20458;-70
2021/12/10 04:09:45;;;;;;;7.57;5.97;;;;;;;;;;2080141;28;20025;-71
2021/12/10 04:11:06;;;;;;;10.15;5.90;;;;;;;;;;2079100;28;20033;-71
2021/12/10 04:12:25;;;;;;;7.22;5.90;;;;;;;;;;2079822;28;20038;-72
2021/12/10 04:13:45;;;;;;;8.05;5.88;;;;;;;;;;2079853;28;20441;-71
2021/12/10 04:15:05;;;;;;;10.32;5.80;;;;;;;;;;2080394;28;20029;-71
2021/12/10 04:16:27;;;;;;;8.98;6.32;;;;;;;;;;2079100;28;20068;-71
2021/12/10 04:17:48;;;;;;;11.10;6.70;;;;;;;;;;2079237;28;20033;-71
2021/12/10 04:19:09;;;;;;;10.02;6.38;;;;;;;;;;2079354;28;20038;-71
2021/12/10 04:20:28;;;;;;;9.77;6.65;;;;;;;;;;2080976;28;20464;-72
2021/12/10 04:21:47;;;;;;;10.90;5.95;;;;;;;;;;2080705;28;20049;-72
2021/12/10 04:23:07;;;;;;;11.93;6.28;;;;;;;;;;2079353;28;20665;-70
2021/12/10 04:24:28;;;;;;;12.95;6.82;;;;;;;;;;2079409;28;20112;-70
2021/12/10 04:25:48;;;;;;;12.93;7.28;;;;;;;;;;2080192;28;20029;-70
2021/12/10 04:27:08;;;;;;;15.32;6.60;;;;;;;;;;2080209;28;20472;-71
2021/12/10 04:28:27;;;;;;;18.27;7.30;;;;;;;;;;2076159;28;20029;-70
2021/12/10 04:29:47;;;;;;;14.07;7.15;;;;;;;;;;2079236;28;20029;-70
2021/12/10 04:31:06;;;;;;;12.82;7.55;;;;;;;;;;2079410;28;20057;-70
2021/12/10 04:32:25;;;;;;;11.93;7.90;;;;;;;;;;2081128;28;20033;-70
2021/12/10 04:33:44;;;;;;;16.63;7.97;;;;;;;;;;2079850;28;20479;-70
2021/12/10 04:35:03;;;;;;;12.95;7.20;;;;;;;;;;2078713;28;20041;-71
2021/12/10 04:36:22;;;;;;;14.65;8.77;;;;;;;;;;2079731;28;20033;-71
2021/12/10 04:37:41;;;;;;;19.40;8.55;;;;;;;;;;2079871;28;20025;-71
2021/12/10 04:38:59;;;;;;;18.98;9.93;;;;;;;;;;2078784;28;20041;-71
2021/12/10 04:40:21;;;;;;;18.08;9.80;;;;;;;;;;2080154;28;20025;-70
2021/12/10 04:41:40;;;;;;;18.48;9.75;;;;;;;;;;2080476;28;20042;-70
2021/12/10 04:42:59;;;;;;;23.73;10.48;;;;;;;;;;2080933;28;20033;-70
2021/12/10 04:44:18;;;;;;;18.63;9.55;;;;;;;;;;2081104;28;20021;-70
2021/12/10 04:45:37;;;;;;;18.15;9.98;;;;;;;;;;2080931;28;20025;-72
2021/12/10 04:46:56;;;;;;;18.75;9.88;;;;;;;;;;2079800;28;20048;-70
2021/12/10 04:48:15;;;;;;;20.60;9.52;;;;;;;;;;2079244;28;20022;-70
2021/12/10 04:49:34;;;;;;;14.45;9.95;;;;;;;;;;2080295;28;20037;-71
2021/12/10 04:50:53;;;;;;;17.48;8.75;;;;;;;;;;2081573;28;20029;-71
2021/12/10 04:52:12;;;;;;;16.08;8.93;;;;;;;;;;2080312;28;20046;-70
2021/12/10 04:53:31;;;;;;;21.23;9.93;;;;;;;;;;2084686;28;20029;-70
2021/12/10 04:54:49;;;;;;;20.90;10.10;;;;;;;;;;2083567;28;20025;-71
2021/12/10 04:56:08;;;;;;;14.93;9.48;;;;;;;;;;2079512;28;20029;-71
2021/12/10 04:57:27;;;;;;;18.55;8.95;;;;;;;;;;2081207;28;20120;-70
2021/12/10 04:58:46;;;;;;;14.27;10.02;;;;;;;;;;2084886;28;20104;-71
2021/12/10 05:00:07;;;;;;;14.27;9.10;;;;;;;;;;2087609;28;20111;-72
2021/12/10 05:01:26;;;;;;;19.88;9.30;;;;;;;;;;2087482;28;20112;-70
2021/12/10 05:02:45;;;;;;;22.63;9.23;;;;;;;;;;2082778;28;20022;-69
2021/12/10 05:04:06;;;;;;;16.50;8.95;;;;;;;;;;2081314;28;20174;-70
2021/12/10 05:05:25;;;;;;;17.73;9.48;;;;;;;;;;2085615;28;20030;-71
2021/12/10 05:06:44;;;;;;;18.27;9.30;;;;;;;;;;2082003;28;20037;-71
2021/12/10 05:08:04;;;;;;;14.15;8.77;;;;;;;;;;2080847;28;20030;-70
2021/12/10 05:09:23;;;;;;;17.38;10.10;;;;;;;;;;2080738;28;20554;-70
2021/12/10 05:10:42;;;;;;;14.35;9.25;;;;;;;;;;2079787;28;20021;-70
2021/12/10 05:12:01;;;;;;;21.45;8.85;;;;;;;;;;2080204;28;20029;-70
2021/12/10 05:13:20;;;;;;;18.17;8.95;;;;;;;;;;2074925;28;20403;-70
2021/12/10 05:14:39;;;;;;;18.52;9.80;;;;;;;;;;2079045;28;20112;-70
2021/12/10 05:15:59;;;;;;;18.63;9.30;;;;;;;;;;2081426;28;20022;-70
2021/12/10 05:17:17;;;;;;;21.10;9.80;;;;;;;;;;2078462;28;20163;-71
2021/12/10 05:18:39;;;;;;;17.63;9.15;;;;;;;;;;2077001;28;20543;-70
2021/12/10 05:20:00;;;;;;;15.95;8.88;;;;;;;;;;2079376;28;20026;-70
2021/12/10 05:21:19;;;;;;;18.65;9.43;;;;;;;;;;2079748;28;20029;-70
2021/12/10 05:22:43;;;;;;;14.55;8.50;;;;;;;;;;2076891;28;20029;-71
2021/12/10 05:24:03;;;;;;;20.77;9.52;;;;;;;;;;2075586;28;20469;-71
2021/12/10 05:25:24;;;;;;;17.25;8.60;;;;;;;;;;2079368;28;20029;-70
2021/12/10 05:26:44;;;;;;;12.68;9.00;;;;;;;;;;2079066;28;20030;-70
2021/12/10 05:28:03;;;;;;;17.05;8.18;;;;;;;;;;2079961;28;20430;-70
2021/12/10 05:29:22;;;;;;;17.23;9.10;;;;;;;;;;2079636;28;20021;-70
2021/12/10 05:30:41;;;;;;;15.27;9.40;;;;;;;;;;2080852;28;20021;-71
2021/12/10 05:32:01;;;;;;;20.60;8.90;;;;;;;;;;2077499;28;20025;-70
2021/12/10 05:33:19;;;;;;;14.27;8.55;;;;;;;;;;2079056;28;20026;-72
2021/12/10 05:34:40;;;;;;;16.92;8.75;;;;;;;;;;2079393;28;20037;-71
2021/12/10 05:36:01;;;;;;;17.95;8.70;;;;;;;;;;2076380;28;20033;-71
2021/12/10 05:37:20;;;;;;;22.80;9.02;;;;;;;;;;2078962;28;20030;-72
2021/12/10 05:38:39;;;;;;;23.67;8.80;;;;;;;;;;2079871;28;20034;-70
2021/12/10 05:39:58;;;;;;;16.63;8.00;;;;;;;;;;2079427;28;20030;-72
2021/12/10 05:41:17;;;;;;;17.45;8.52;;;;;;;;;;2079418;28;20037;-70
2021/12/10 05:42:36;;;;;;;16.60;8.35;;;;;;;;;;2077644;28;20029;-72
2021/12/10 05:43:55;;;;;;;13.05;7.78;;;;;;;;;;2078205;28;20100;-71
2021/12/10 05:45:15;;;;;;;13.93;7.60;;;;;;;;;;2079506;28;20021;-71
2021/12/10 05:46:34;;;;;;;16.48;7.70;;;;;;;;;;2084923;28;20029;-71
2021/12/10 05:47:53;;;;;;;17.15;7.88;;;;;;;;;;2082001;28;20025;-70
2021/12/10 05:49:12;;;;;;;13.35;7.22;;;;;;;;;;2077974;28;20148;-70
2021/12/10 05:50:31;;;;;;;17.75;7.57;;;;;;;;;;2078366;28;20468;-69
2021/12/10 05:51:50;;;;;;;18.75;7.70;;;;;;;;;;2080004;28;20391;-71
2021/12/10 05:53:09;;;;;;;12.43;6.55;;;;;;;;;;2079154;28;20120;-74
2021/12/10 05:54:28;;;;;;;15.77;6.68;;;;;;;;;;2081090;28;20026;-71
2021/12/10 05:55:46;;;;;;;14.80;6.30;;;;;;;;;;2082622;28;20426;-71
2021/12/10 05:57:06;;;;;;;12.25;6.80;;;;;;;;;;2080106;28;20112;-70
2021/12/10 05:58:24;;;;;;;10.10;5.90;;;;;;;;;;2078044;28;20058;-70
2021/12/10 05:59:44;;;;;;;12.07;6.13;;;;;;;;;;2080614;28;20041;-71
2021/12/10 06:01:05;;;;;;;9.85;6.30;;;;;;;;;;2078586;28;20578;-71
2021/12/10 06:02:24;;;;;;;9.90;6.25;;;;;;;;;;2080468;28;20501;-71
2021/12/10 06:03:51;;;;;;;10.95;6.57;;;;;;;;;;2079982;28;20025;-70
2021/12/10 06:05:10;;;;;;;11.80;6.25;;;;;;;;;;2080418;28;20025;-71
2021/12/10 06:06:31;;;;;;;11.93;6.20;;;;;;;;;;2081646;28;20049;-71
2021/12/10 06:07:50;;;;;;;11.93;6.20;;;;;;;;;;2079891;28;20033;-71
2021/12/10 06:09:09;;;;;;;19.85;6.63;;;;;;;;;;2080168;28;20037;-70
2021/12/10 06:10:28;;;;;;;8.63;5.47;;;;;;;;;;2080231;28;20025;-70
2021/12/10 06:11:47;;;;;;;12.43;6.32;;;;;;;;;;2080032;28;20022;-70
2021/12/10 06:13:07;;;;;;;9.95;5.85;;;;;;;;;;2084036;28;20427;-71
2021/12/10 06:14:27;;;;;;;8.27;5.82;;;;;;;;;;2079291;28;20025;-71
2021/12/10 06:15:46;;;;;;;14.23;5.53;;;;;;;;;;2074947;28;20077;-71
2021/12/10 06:17:05;;;;;;;10.75;6.13;;;;;;;;;;2076460;28;20033;-70
2021/12/10 06:18:23;;;;;;;8.07;5.95;;;;;;;;;;2083457;28;20120;-69
2021/12/10 06:19:42;;;;;;;18.48;6.35;;;;;;;;;;2083142;28;20030;-68
2021/12/10 06:21:01;;;;;;;12.63;6.28;;;;;;;;;;2080655;28;20395;-68
2021/12/10 06:22:20;;;;;;;11.35;6.03;;;;;;;;;;2079928;28;20402;-68
2021/12/10 06:23:39;;;;;;;11.52;6.88;;;;;;;;;;2080700;28;20108;-68
2021/12/10 06:24:58;;;;;;;15.02;7.07;;;;;;;;;;2080484;28;20453;-67
2021/12/10 06:26:17;;;;;;;9.82;6.20;;;;;;;;;;2080107;28;20403;-68
2021/12/10 06:27:44;;;;;;;10.60;7.53;;;;;;;;;;2081648;28;20061;-69
2021/12/10 06:29:03;;;;;;;11.57;7.50;;;;;;;;;;2082066;28;20065;-68
2021/12/10 06:30:24;;;;;;;16.38;7.85;;;;;;;;;;2079782;28;20487;-68
2021/12/10 06:31:43;;;;;;;14.75;7.78;;;;;;;;;;2078374;28;20074;-70
2021/12/10 06:33:03;;;;;;;12.60;8.20;;;;;;;;;;2079026;28;20034;-68
2021/12/10 06:34:23;;;;;;;13.10;8.30;;;;;;;;;;2081471;28;20471;-68
2021/12/10 06:35:43;;;;;;;13.65;8.38;;;;;;;;;;2081351;28;20108;-68
2021/12/10 06:37:03;;;;;;;15.30;9.38;;;;;;;;;;2081818;28;20026;-68
2021/12/10 06:38:23;;;;;;;19.38;9.10;;;;;;;;;;2079908;28;20034;-68
2021/12/10 06:39:42;;;;;;;18.90;9.52;;;;;;;;;;2078050;28;20061;-69
2021/12/10 06:41:01;;;;;;;17.02;9.35;;;;;;;;;;2081223;28;20112;-70
2021/12/10 06:42:20;;;;;;;20.88;9.73;;;;;;;;;;2080204;28;20041;-69
2021/12/10 06:43:40;;;;;;;19.10;9.52;;;;;;;;;;2080052;28;20033;-69
2021/12/10 06:44:58;;;;;;;16.98;10.13;;;;;;;;;;2078272;28;20037;-69
2021/12/10 06:46:18;;;;;;;17.10;9.25;;;;;;;;;;2079832;28;20029;-68
2021/12/10 06:47:37;;;;;;;17.75;9.82;;;;;;;;;;2080425;28;20100;-69
2021/12/10 06:48:55;;;;;;;20.23;10.48;;;;;;;;;;2080543;28;20029;-69
2021/12/10 06:50:17;;;;;;;16.45;9.40;;;;;;;;;;2080647;28;20658;-70
2021/12/10 06:51:36;;;;;;;14.65;9.65;;;;;;;;;;2079252;28;20117;-69
2021/12/10 06:52:55;;;;;;;17.50;9.70;;;;;;;;;;2081162;28;20025;-69
2021/12/10 06:54:14;;;;;;;18.60;10.43;;;;;;;;;;2078684;28;20045;-70
2021/12/10 06:55:33;;;;;;;16.63;9.90;;;;;;;;;;2079846;28;20033;-71
2021/12/10 06:56:53;;;;;;;21.73;10.48;;;;;;;;;;2080287;28;20056;-69
2021/12/10 06:58:12;;;;;;;19.83;9.65;;;;;;;;;;2080848;28;20033;-69
2021/12/10 06:59:31;;;;;;;16.35;10.35;;;;;;;;;;2079625;28;20476;-69
2021/12/10 07:00:52;;;;;;;16.92;9.65;;;;;;;;;;2080877;28;20041;-71
2021/12/10 07:02:11;;;;;;;18.95;10.60;;;;;;;;;;2080148;28;20037;-69
2021/12/10 07:03:30;;;;;;;17.40;10.32;;;;;;;;;;2079857;28;20025;-69
2021/12/10 07:04:50;;;;;;;14.52;9.90;;;;;;;;;;2081861;28;20441;-70
2021/12/10 07:06:09;;;;;;;17.70;9.38;;;;;;;;;;2080749;28;20116;-70
2021/12/10 07:07:29;;;;;;;16.30;9.18;;;;;;;;;;2082036;28;20021;-71
2021/12/10 07:08:48;;;;;;;21.27;8.68;;;;;;;;;;2081855;28;20030;-70
2021/12/10 07:10:08;;;;;;;16.88;8.77;;;;;;;;;;2081164;28;20492;-70
2021/12/10 07:11:27;;;;;;;13.98;9.30;;;;;;;;;;2078005;28;20112;-69
2021/12/10 07:12:46;;;;;;;17.23;9.38;;;;;;;;;;2081041;28;20033;-71
2021/12/10 07:14:06;;;;;;;17.70;9.40;;;;;;;;;;2080539;28;20030;-70
2021/12/10 07:15:25;;;;;;;21.63;10.38;;;;;;;;;;2081543;28;20115;-70
2021/12/10 07:16:45;;;;;;;17.55;9.63;;;;;;;;;;2076777;28;20470;-69
2021/12/10 07:18:04;;;;;;;16.95;9.35;;;;;;;;;;2079127;28;20037;-68
2021/12/10 07:19:26;;;;;;;15.43;8.52;;;;;;;;;;2081629;28;20030;-71
2021/12/10 07:20:47;;;;;;;15.90;9.55;;;;;;;;;;2081409;28;20029;-69
2021/12/10 07:22:06;;;;;;;16.70;9.40;;;;;;;;;;2081053;28;20033;-71
2021/12/10 07:23:25;;;;;;;17.98;9.32;;;;;;;;;;2080437;28;20550;-70
2021/12/10 07:24:44;;;;;;;17.15;9.10;;;;;;;;;;2076226;28;20352;-68
2021/12/10 07:26:04;;;;;;;16.70;8.38;;;;;;;;;;2077830;28;20123;-69
2021/12/10 07:27:23;;;;;;;21.38;9.13;;;;;;;;;;2075038;28;20026;-68
2021/12/10 07:28:42;;;;;;;12.90;8.35;;;;;;;;;;2079552;28;20045;-69
2021/12/10 07:30:02;;;;;;;18.15;7.88;;;;;;;;;;2080617;28;20426;-68
2021/12/10 07:31:21;;;;;;;17.80;7.95;;;;;;;;;;2081071;28;20583;-68
2021/12/10 07:32:40;;;;;;;15.52;7.82;;;;;;;;;;2080306;28;20033;-68
2021/12/10 07:33:58;;;;;;;10.35;7.50;;;;;;;;;;2081224;28;20104;-70
2021/12/10 07:35:18;;;;;;;8.85;6.03;;;;;;;;;;2080976;28;20029;-69
2021/12/10 07:36:40;;;;;;;13.73;6.70;;;;;;;;;;2080986;28;20021;-69
2021/12/10 07:37:59;;;;;;;16.15;7.45;;;;;;;;;;2080451;28;20026;-69
2021/12/10 07:39:18;;;;;;;6.85;5.18;;;;;;;;;;2082004;28;20399;-67
2021/12/10 07:40:37;;;;;;;9.88;5.90;;;;;;;;;;2080506;28;20049;-69
2021/12/10 07:41:56;;;;;;;9.73;5.50;;;;;;;;;;2080337;28;20038;-69
2021/12/10 07:43:15;;;;;;;8.05;5.25;;;;;;;;;;2080908;28;20034;-69
2021/12/10 07:44:35;;;;;;;7.38;5.80;;;;;;;;;;2080318;28;20026;-69
2021/12/10 07:45:54;;;;;;;7.10;5.03;;;;;;;;;;2079684;28;20022;-67
2021/12/10 07:47:14;;;;;;;10.93;5.10;;;;;;;;;;2079138;28;20025;-70
2021/12/10 07:48:35;;;;;;;15.77;5.85;;;;;;;;;;2079818;28;20029;-69
2021/12/10 07:49:54;;;;;;;7.60;4.82;;;;;;;;;;2078824;28;20026;-69
2021/12/10 07:51:18;;;;;;;12.68;5.03;;;;;;;;;;2081156;28;20049;-68
2021/12/10 07:52:37;;;;;;;9.75;5.75;;;;;;;;;;2079278;28;20029;-68
2021/12/10 07:53:57;;;;;;;9.70;4.85;;;;;;;;;;2080707;28;20033;-69
2021/12/10 07:55:16;;;;;;;9.27;4.75;;;;;;;;;;2080639;28;20499;-68
2021/12/10 07:56:35;;;;;;;8.00;4.57;;;;;;;;;;2079990;28;20025;-70
2021/12/10 07:57:54;;;;;;;7.13;4.85;;;;;;;;;;2080732;28;20042;-69
2021/12/10 07:59:13;;;;;;;8.52;4.20;;;;;;;;;;2077538;28;20038;-71
2021/12/10 08:00:34;;;;;;;7.95;4.15;;;;;;;;;;2080271;28;20045;-68
2021/12/10 08:01:53;;;;;;;10.13;4.22;;;;;;;;;;2080842;28;20034;-69
2021/12/10 08:03:12;;;;;;;7.78;4.78;;;;;;;;;;2085892;28;20024;-69
2021/12/10 08:04:31;;;;;;;12.10;5.00;;;;;;;;;;2080068;28;20084;-69
2021/12/10 08:05:50;;;;;;;9.82;4.90;;;;;;;;;;2079473;28;20034;-68